| time (UTC) | temp C | wind direction | speed KPH | gust KPH | rain 1hr cm | rain 24hr cm | rain mn cm | humidity % | barometer mb |
| 20260507210154 | 13 | 90 | 4.8 | 6.4 | 0.00 | 0.03 | 0.03 | 91 | 1012.4 |
| 20260507205245 | 13 | 135 | 3.2 | 4.8 | 0.00 | 0.03 | 0.03 | 91 | 1012.4 |
| 20260507204231 | 14 | 135 | 4.8 | 6.4 | 0.00 | 0.03 | 0.03 | 90 | 1012.4 |
| 20260507203225 | 14 | 135 | 4.8 | 6.4 | 0.00 | 0.03 | 0.03 | 90 | 1012.2 |
| 20260507202210 | 14 | 135 | 6.4 | 6.4 | 0.00 | 0.03 | 0.03 | 89 | 1012.2 |
| 20260507201206 | 15 | 135 | 6.4 | 8.0 | 0.00 | 0.03 | 0.03 | 89 | 1012.2 |
| 20260507200154 | 15 | 90 | 4.8 | 6.4 | 0.00 | 0.03 | 0.03 | 89 | 1012.1 |
| 20260507195811 | 15 | 90 | 4.8 | 6.4 | 0.00 | 0.03 | 0.03 | 89 | 1012.1 |
| 20260507194655 | 15 | 135 | 3.2 | 6.4 | 0.00 | 0.03 | 0.03 | 88 | 1012.1 |
| 20260507193643 | 15 | 135 | 6.4 | 6.4 | 0.00 | 0.03 | 0.03 | 89 | 1012.3 |
| 20260507192643 | 15 | 90 | 3.2 | 3.2 | 0.00 | 0.03 | 0.03 | 89 | 1012.1 |
| 20260507191610 | 15 | 45 | 1.6 | 3.2 | 0.00 | 0.03 | 0.03 | 88 | 1011.9 |
| 20260507190606 | 15 | 0.0 | 0.0 | 0.00 | 0.03 | 0.03 | 87 | 1011.8 | |
| 20260507185147 | 15 | 0.0 | 0.0 | 0.00 | 0.03 | 0.03 | 86 | 1012.0 | |
| 20260507184202 | 15 | 90 | 1.6 | 3.2 | 0.00 | 0.03 | 0.03 | 85 | 1011.7 |
| 20260507183130 | 15 | 0.0 | 0.0 | 0.00 | 0.03 | 0.03 | 84 | 1011.7 | |
| 20260507182111 | 15 | 158 | 4.8 | 6.4 | 0.00 | 0.03 | 0.03 | 83 | 1011.6 |
| 20260507181106 | 15 | 135 | 6.4 | 8.0 | 0.00 | 0.03 | 0.03 | 82 | 1011.4 |
| 20260507180213 | 16 | 180 | 3.2 | 6.4 | 0.00 | 0.03 | 0.03 | 83 | 1011.1 |
| 20260507175147 | 16 | 135 | 3.2 | 3.2 | 0.00 | 0.03 | 0.03 | 84 | 1010.9 |
| 20260507174141 | 16 | 135 | 6.4 | 6.4 | 0.00 | 0.03 | 0.03 | 85 | 1011.0 |
| 20260507173130 | 16 | 135 | 8.0 | 9.7 | 0.00 | 0.03 | 0.03 | 84 | 1011.1 |
| 20260507172119 | 16 | 135 | 8.0 | 9.7 | 0.00 | 0.03 | 0.03 | 83 | 1010.7 |
| 20260507171101 | 16 | 90 | 4.8 | 6.4 | 0.00 | 0.03 | 0.03 | 82 | 1010.6 |
| 20260507170155 | 16 | 90 | 3.2 | 4.8 | 0.00 | 0.03 | 0.03 | 81 | 1010.5 |
| 20260507165806 | 16 | 90 | 3.2 | 4.8 | 0.00 | 0.03 | 0.03 | 81 | 1010.5 |
| 20260507164654 | 16 | 135 | 3.2 | 3.2 | 0.00 | 0.03 | 0.03 | 81 | 1010.7 |
| 20260507163636 | 17 | 135 | 3.2 | 6.4 | 0.00 | 0.03 | 0.03 | 81 | 1010.9 |
| 20260507162629 | 17 | 135 | 6.4 | 8.0 | 0.00 | 0.03 | 0.03 | 80 | 1010.8 |
| 20260507161630 | 17 | 135 | 6.4 | 6.4 | 0.00 | 0.03 | 0.03 | 78 | 1010.7 |
| 20260507160607 | 17 | 180 | 4.8 | 6.4 | 0.00 | 0.03 | 0.03 | 74 | 1010.8 |
| 20260507155253 | 17 | 180 | 4.8 | 6.4 | 0.03 | 0.03 | 0.03 | 73 | 1010.6 |
| 20260507154302 | 17 | 180 | 6.4 | 8.0 | 0.03 | 0.03 | 0.03 | 75 | 1010.8 |
| 20260507153231 | 17 | 180 | 3.2 | 6.4 | 0.03 | 0.03 | 0.03 | 77 | 1010.8 |
| 20260507152210 | 17 | 180 | 6.4 | 6.4 | 0.03 | 0.03 | 0.03 | 77 | 1010.7 |
| 20260507151206 | 17 | 180 | 8.0 | 9.7 | 0.03 | 0.03 | 0.03 | 80 | 1010.7 |
| 20260507150214 | 17 | 225 | 6.4 | 9.7 | 0.00 | 0.00 | 0.00 | 77 | 1010.9 |
| 20260507145700 | 17 | 225 | 8.0 | 11.3 | 0.00 | 0.00 | 0.00 | 73 | 1010.9 |
| 20260507144648 | 17 | 270 | 8.0 | 11.3 | 0.00 | 0.00 | 0.00 | 72 | 1010.9 |
| 20260507143632 | 17 | 225 | 11.3 | 12.9 | 0.00 | 0.00 | 0.00 | 71 | 1010.8 |
| 20260507142621 | 18 | 225 | 12.9 | 14.5 | 0.00 | 0.00 | 0.00 | 70 | 1010.6 |
| 20260507141630 | 19 | 225 | 12.9 | 14.5 | 0.00 | 0.00 | 0.00 | 64 | 1010.5 |
| 20260507140606 | 20 | 270 | 11.3 | 12.9 | 0.00 | 0.00 | 0.00 | 61 | 1010.7 |
| 20260507135719 | 20 | 270 | 12.9 | 16.1 | 0.00 | 0.00 | 0.00 | 60 | 1010.4 |
| 20260507134705 | 20 | 315 | 4.8 | 6.4 | 0.00 | 0.00 | 0.00 | 60 | 1010.6 |
| 20260507133633 | 20 | 0 | 3.2 | 3.2 | 0.00 | 0.00 | 0.00 | 61 | 1010.5 |
| 20260507132623 | 20 | 225 | 3.2 | 4.8 | 0.00 | 0.00 | 0.00 | 61 | 1010.3 |
| 20260507131630 | 20 | 270 | 6.4 | 8.0 | 0.00 | 0.00 | 0.00 | 56 | 1010.5 |
| 20260507130607 | 20 | 270 | 4.8 | 6.4 | 0.00 | 0.00 | 0.00 | 55 | 1010.5 |
| 20260507125242 | 20 | 315 | 6.4 | 8.0 | 0.00 | 0.00 | 0.00 | 55 | 1010.4 |
| 20260507124232 | 20 | 270 | 9.7 | 11.3 | 0.00 | 0.00 | 0.00 | 54 | 1010.2 |
| 20260507123220 | 21 | 270 | 8.0 | 11.3 | 0.00 | 0.00 | 0.00 | 53 | 1010.3 |
| 20260507122209 | 21 | 270 | 14.5 | 17.7 | 0.00 | 0.00 | 0.00 | 53 | 1010.2 |
| 20260507121205 | 21 | 225 | 14.5 | 17.7 | 0.00 | 0.00 | 0.00 | 52 | 1010.3 |
| 20260507120213 | 21 | 225 | 12.9 | 14.5 | 0.00 | 0.00 | 0.00 | 53 | 1010.3 |
| 20260507115157 | 21 | 293 | 12.9 | 16.1 | 0.00 | 0.00 | 0.00 | 52 | 1010.6 |
| 20260507114145 | 21 | 270 | 8.0 | 11.3 | 0.00 | 0.00 | 0.00 | 52 | 1010.4 |
| 20260507113129 | 21 | 225 | 12.9 | 14.5 | 0.00 | 0.00 | 0.00 | 51 | 1010.2 |
| 20260507112118 | 21 | 270 | 9.7 | 12.9 | 0.00 | 0.00 | 0.00 | 51 | 1010.5 |
| 20260507111205 | 22 | 270 | 14.5 | 17.7 | 0.00 | 0.00 | 0.00 | 51 | 1010.2 |
| 20260507110153 | 22 | 270 | 9.7 | 12.9 | 0.00 | 0.00 | 0.00 | 52 | 1010.4 |
| 20260507105245 | 22 | 225 | 14.5 | 17.7 | 0.00 | 0.00 | 0.00 | 52 | 1010.4 |
| 20260507104231 | 22 | 180 | 9.7 | 12.9 | 0.00 | 0.00 | 0.00 | 53 | 1010.5 |
| 20260507103219 | 22 | 180 | 12.9 | 16.1 | 0.00 | 0.00 | 0.00 | 52 | 1010.5 |
| 20260507102230 | 21 | 135 | 6.4 | 9.7 | 0.00 | 0.00 | 0.00 | 54 | 1010.4 |
| 20260507101205 | 21 | 270 | 4.8 | 6.4 | 0.00 | 0.00 | 0.00 | 54 | 1010.7 |
| 20260507100213 | 21 | 270 | 11.3 | 17.7 | 0.00 | 0.00 | 0.00 | 54 | 1010.6 |
| 20260507095246 | 21 | 180 | 11.3 | 12.9 | 0.00 | 0.00 | 0.00 | 55 | 1010.6 |
| 20260507094235 | 21 | 225 | 12.9 | 17.7 | 0.00 | 0.00 | 0.00 | 59 | 1010.5 |
| 20260507093227 | 21 | 225 | 6.4 | 8.0 | 0.00 | 0.00 | 0.00 | 56 | 1010.7 |
| 20260507092209 | 20 | 270 | 8.0 | 9.7 | 0.00 | 0.00 | 0.00 | 59 | 1010.7 |
| 20260507091225 | 20 | 180 | 8.0 | 9.7 | 0.00 | 0.00 | 0.00 | 60 | 1010.8 |
| 20260507090215 | 20 | 315 | 14.5 | 16.1 | 0.00 | 0.00 | 0.00 | 63 | 1010.4 |
| 20260507085243 | 19 | 270 | 12.9 | 12.9 | 0.00 | 0.00 | 0.00 | 63 | 1010.6 |
| 20260507084252 | 19 | 225 | 6.4 | 8.0 | 0.00 | 0.00 | 0.00 | 62 | 1010.6 |
| 20260507083221 | 18 | 225 | 11.3 | 12.9 | 0.00 | 0.00 | 0.00 | 62 | 1010.5 |
| 20260507082229 | 18 | 225 | 4.8 | 6.4 | 0.00 | 0.00 | 0.00 | 62 | 1010.4 |
| 20260507081205 | 18 | 270 | 6.4 | 6.4 | 0.00 | 0.00 | 0.00 | 62 | 1010.1 |
| 20260507080254 | 18 | 270 | 6.4 | 9.7 | 0.00 | 0.00 | 0.00 | 63 | 1010.3 |
| 20260507075242 | 18 | 225 | 6.4 | 8.0 | 0.00 | 0.00 | 0.00 | 61 | 1010.2 |
| 20260507074231 | 19 | 270 | 3.2 | 6.4 | 0.00 | 0.00 | 0.00 | 62 | 1010.1 |
| 20260507073220 | 18 | 270 | 6.4 | 6.4 | 0.00 | 0.00 | 0.00 | 63 | 1010.2 |
| 20260507072229 | 19 | 225 | 6.4 | 9.7 | 0.00 | 0.00 | 0.00 | 66 | 1010.2 |
| 20260507071205 | 18 | 225 | 12.9 | 12.9 | 0.00 | 0.00 | 0.00 | 67 | 1010.1 |
| 20260507070154 | 17 | 225 | 9.7 | 12.9 | 0.00 | 0.00 | 0.00 | 69 | 1010.0 |
| 20260507065243 | 17 | 180 | 9.7 | 11.3 | 0.00 | 0.00 | 0.00 | 70 | 1009.9 |
| 20260507064232 | 17 | 180 | 9.7 | 11.3 | 0.00 | 0.00 | 0.00 | 75 | 1010.0 |
| 20260507063220 | 16 | 180 | 8.0 | 9.7 | 0.00 | 0.00 | 0.00 | 76 | 1009.9 |
| 20260507062229 | 16 | 180 | 12.9 | 16.1 | 0.00 | 0.00 | 0.00 | 79 | 1010.0 |
| 20260507061205 | 16 | 180 | 8.0 | 11.3 | 0.00 | 0.00 | 0.00 | 80 | 1009.5 |
| 20260507060153 | 16 | 180 | 9.7 | 11.3 | 0.00 | 0.00 | 0.00 | 80 | 1009.6 |
| 20260507055605 | 16 | 135 | 9.7 | 11.3 | 0.00 | 0.00 | 0.00 | 81 | 1009.7 |
| 20260507054647 | 16 | 135 | 8.0 | 11.3 | 0.00 | 0.00 | 0.00 | 81 | 1009.7 |
| 20260507053634 | 16 | 135 | 4.8 | 6.4 | 0.00 | 0.00 | 0.00 | 82 | 1009.2 |
| 20260507052622 | 16 | 135 | 9.7 | 11.3 | 0.00 | 0.00 | 0.00 | 84 | 1009.3 |
| 20260507051609 | 16 | 180 | 6.4 | 9.7 | 0.00 | 0.00 | 0.00 | 84 | 1009.0 |
| 20260507050607 | 15 | 180 | 3.2 | 4.8 | 0.00 | 0.00 | 0.00 | 83 | 1009.0 |
| 20260507045659 | 15 | 0.0 | 0.0 | 0.00 | 0.00 | 0.00 | 84 | 1009.2 | |
| 20260507044647 | 15 | 45 | 3.2 | 4.8 | 0.00 | 0.00 | 0.00 | 85 | 1009.0 |
| 20260507043636 | 15 | 0.0 | 0.0 | 0.00 | 0.00 | 0.00 | 85 | 1008.5 | |
| 20260507042629 | 15 | 0.0 | 0.0 | 0.00 | 0.00 | 0.00 | 86 | 1008.6 | |
| 20260507041617 | 14 | 135 | 6.4 | 8.0 | 0.00 | 0.00 | 0.00 | 86 | 1008.8 |
| 20260507040606 | 14 | 0 | 1.6 | 3.2 | 0.00 | 0.00 | 0.00 | 85 | 1008.3 |
| 20260507035656 | 14 | 0.0 | 0.0 | 0.00 | 0.00 | 0.00 | 84 | 1008.3 | |
| 20260507034644 | 13 | 315 | 3.2 | 3.2 | 0.00 | 0.00 | 0.00 | 84 | 1008.3 |
| 20260507033633 | 13 | 180 | 1.6 | 3.2 | 0.00 | 0.00 | 0.00 | 81 | 1008.1 |
| 20260507032620 | 15 | 135 | 6.4 | 6.4 | 0.00 | 0.00 | 0.00 | 80 | 1008.2 |
| 20260507031610 | 15 | 135 | 3.2 | 4.8 | 0.00 | 0.00 | 0.00 | 80 | 1008.1 |
| 20260507030606 | 15 | 135 | 6.4 | 8.0 | 0.00 | 0.00 | 0.00 | 81 | 1008.0 |
| 20260507025658 | 15 | 135 | 6.4 | 6.4 | 0.00 | 0.00 | 0.00 | 82 | 1008.0 |
| 20260507024647 | 15 | 135 | 9.7 | 11.3 | 0.00 | 0.00 | 0.00 | 87 | 1008.1 |
| 20260507023635 | 14 | 0.0 | 3.2 | 0.00 | 0.00 | 0.00 | 86 | 1007.8 | |
| 20260507022628 | 15 | 45 | 1.6 | 3.2 | 0.00 | 0.00 | 0.00 | 85 | 1008.0 |
| 20260507021618 | 15 | 0.0 | 0.0 | 0.00 | 0.00 | 0.00 | 85 | 1008.0 | |
| 20260507020605 | 15 | 180 | 6.4 | 8.0 | 0.00 | 0.00 | 0.00 | 86 | 1007.6 |
| 20260507005236 | 16 | 135 | 9.7 | 11.3 | 0.00 | 0.00 | 0.00 | 85 | 1008.1 |
| 20260507004203 | 16 | 135 | 9.7 | 11.3 | 0.00 | 0.00 | 0.00 | 85 | 1008.1 |
| 20260507003130 | 16 | 90 | 3.2 | 6.4 | 0.00 | 0.00 | 0.00 | 85 | 1008.3 |
| 20260507002119 | 16 | 45 | 4.8 | 6.4 | 0.00 | 0.00 | 0.00 | 84 | 1008.4 |
| 20260507001204 | 16 | 135 | 6.4 | 8.0 | 0.00 | 0.00 | 0.00 | 84 | 1008.5 |
| 20260507000153 | 16 | 135 | 3.2 | 4.8 | 0.00 | 0.00 | 0.00 | 84 | 1008.5 |
| 20260506235245 | 16 | 135 | 4.8 | 6.4 | 0.00 | 0.00 | 0.00 | 83 | 1008.5 |
| 20260506234233 | 16 | 180 | 6.4 | 9.7 | 0.00 | 0.00 | 0.00 | 83 | 1008.3 |
| 20260506233222 | 16 | 180 | 12.9 | 14.5 | 0.00 | 0.00 | 0.00 | 82 | 1008.6 |
| 20260506232210 | 17 | 180 | 14.5 | 17.7 | 0.00 | 0.00 | 0.00 | 82 | 1008.6 |
| 20260506231204 | 17 | 225 | 12.9 | 17.7 | 0.00 | 0.00 | 0.00 | 83 | 1008.8 |
| 20260506230153 | 17 | 180 | 14.5 | 17.7 | 0.00 | 0.00 | 0.00 | 82 | 1008.9 |
| 20260506225246 | 17 | 180 | 20.9 | 27.4 | 0.00 | 0.00 | 0.00 | 76 | 1008.7 |
| 20260506224233 | 17 | 180 | 14.5 | 16.1 | 0.00 | 0.00 | 0.00 | 77 | 1008.5 |
| 20260506223222 | 17 | 180 | 9.7 | 12.9 | 0.00 | 0.00 | 0.00 | 81 | 1008.1 |
| 20260506222211 | 16 | 180 | 9.7 | 11.3 | 0.00 | 0.00 | 0.00 | 82 | 1007.8 |
| 20260506221206 | 17 | 135 | 4.8 | 6.4 | 0.00 | 0.00 | 0.00 | 81 | 1008.0 |
| 20260506220153 | 17 | 180 | 4.8 | 6.4 | 0.00 | 0.00 | 0.00 | 80 | 1008.0 |
| 20260506215253 | 17 | 135 | 4.8 | 6.4 | 0.00 | 0.00 | 0.00 | 81 | 1007.9 |
| 20260506214241 | 17 | 135 | 6.4 | 6.4 | 0.00 | 0.00 | 0.00 | 81 | 1008.0 |
| 20260506213229 | 17 | 135 | 6.4 | 6.4 | 0.00 | 0.00 | 0.00 | 76 | 1007.8 |
| 20260506212210 | 17 | 135 | 8.0 | 8.0 | 0.00 | 0.00 | 0.00 | 74 | 1007.8 |
| 20260506211205 | 18 | 135 | 1.6 | 3.2 | 0.00 | 0.00 | 0.00 | 73 | 1007.9 |